sensor_id;sensor_type;location;lat;lon;timestamp;pressure;altitude;pressure_sealevel;temperature;humidity
39729;BME280;25402;42.004;23.088;2023-05-20T00:07:02;97684.47;;;9.62;49.88
39729;BME280;25402;42.004;23.088;2023-05-20T00:09:31;97651.50;;;9.44;49.97
39729;BME280;25402;42.004;23.088;2023-05-20T00:11:58;97684.28;;;9.64;49.81
39729;BME280;25402;42.004;23.088;2023-05-20T00:14:25;97671.88;;;9.55;50.07
39729;BME280;25402;42.004;23.088;2023-05-20T00:16:53;97685.88;;;9.58;49.92
39729;BME280;25402;42.004;23.088;2023-05-20T00:19:20;97661.97;;;9.39;49.93
39729;BME280;25402;42.004;23.088;2023-05-20T00:21:47;97663.84;;;9.38;50.07
39729;BME280;25402;42.004;23.088;2023-05-20T00:24:14;97674.75;;;9.45;49.96
39729;BME280;25402;42.004;23.088;2023-05-20T00:26:43;97680.84;;;9.47;49.60
39729;BME280;25402;42.004;23.088;2023-05-20T00:29:10;97691.16;;;9.44;49.73
39729;BME280;25402;42.004;23.088;2023-05-20T00:31:37;97689.81;;;9.40;49.96
39729;BME280;25402;42.004;23.088;2023-05-20T00:34:04;97690.00;;;9.38;49.60
39729;BME280;25402;42.004;23.088;2023-05-20T00:36:30;97692.38;;;9.33;49.64
39729;BME280;25402;42.004;23.088;2023-05-20T00:38:57;97680.28;;;9.21;49.78
39729;BME280;25402;42.004;23.088;2023-05-20T00:41:25;97687.69;;;9.27;49.71
39729;BME280;25402;42.004;23.088;2023-05-20T00:43:55;97687.69;;;9.27;49.88
39729;BME280;25402;42.004;23.088;2023-05-20T00:46:22;97691.06;;;9.21;50.12
39729;BME280;25402;42.004;23.088;2023-05-20T00:48:50;97692.41;;;9.25;49.83
39729;BME280;25402;42.004;23.088;2023-05-20T00:51:17;97693.94;;;9.19;50.03
39729;BME280;25402;42.004;23.088;2023-05-20T00:53:45;97696.81;;;9.10;50.19
39729;BME280;25402;42.004;23.088;2023-05-20T00:56:13;97688.06;;;9.08;50.23
39729;BME280;25402;42.004;23.088;2023-05-20T00:58:40;97696.81;;;9.10;50.18
39729;BME280;25402;42.004;23.088;2023-05-20T01:01:09;97692.78;;;9.06;50.41
39729;BME280;25402;42.004;23.088;2023-05-20T01:03:36;97683.66;;;8.98;50.43
39729;BME280;25402;42.004;23.088;2023-05-20T01:06:03;97673.25;;;8.87;50.49
39729;BME280;25402;42.004;23.088;2023-05-20T01:08:30;97680.38;;;8.80;51.09
39729;BME280;25402;42.004;23.088;2023-05-20T01:11:02;97670.94;;;8.76;51.19
39729;BME280;25402;42.004;23.088;2023-05-20T01:13:35;97677.47;;;8.82;51.10
39729;BME280;25402;42.004;23.088;2023-05-20T01:16:06;97682.03;;;8.89;51.21
39729;BME280;25402;42.004;23.088;2023-05-20T01:18:38;97680.00;;;8.83;51.00
39729;BME280;25402;42.004;23.088;2023-05-20T01:21:08;97679.34;;;8.73;51.05
39729;BME280;25402;42.004;23.088;2023-05-20T01:23:38;97686.09;;;8.69;50.96
39729;BME280;25402;42.004;23.088;2023-05-20T01:26:06;97679.72;;;8.62;50.92
39729;BME280;25402;42.004;23.088;2023-05-20T01:28:34;97683.06;;;8.72;50.92
39729;BME280;25402;42.004;23.088;2023-05-20T01:31:08;97672.47;;;8.62;51.07
39729;BME280;25402;42.004;23.088;2023-05-20T01:33:36;97681.06;;;8.58;51.59
39729;BME280;25402;42.004;23.088;2023-05-20T01:36:05;97678.34;;;8.58;51.51
39729;BME280;25402;42.004;23.088;2023-05-20T01:38:34;97690.84;;;8.59;51.57
39729;BME280;25402;42.004;23.088;2023-05-20T01:41:03;97679.53;;;8.63;51.59
39729;BME280;25402;42.004;23.088;2023-05-20T01:43:32;97672.78;;;8.51;51.45
39729;BME280;25402;42.004;23.088;2023-05-20T01:45:59;97679.38;;;8.57;51.58
39729;BME280;25402;42.004;23.088;2023-05-20T01:48:27;97680.38;;;8.56;51.58
39729;BME280;25402;42.004;23.088;2023-05-20T01:50:54;97661.53;;;8.48;51.38
39729;BME280;25402;42.004;23.088;2023-05-20T01:53:21;97653.44;;;8.40;51.60
39729;BME280;25402;42.004;23.088;2023-05-20T01:55:48;97679.06;;;8.44;51.71
39729;BME280;25402;42.004;23.088;2023-05-20T01:58:16;97661.00;;;8.36;51.79
39729;BME280;25402;42.004;23.088;2023-05-20T02:00:43;97654.78;;;8.27;52.16
39729;BME280;25402;42.004;23.088;2023-05-20T02:03:10;97657.66;;;8.34;52.45
39729;BME280;25402;42.004;23.088;2023-05-20T02:05:37;97659.69;;;8.32;52.63
39729;BME280;25402;42.004;23.088;2023-05-20T02:08:04;97659.53;;;8.33;52.70
39729;BME280;25402;42.004;23.088;2023-05-20T02:10:31;97660.69;;;8.31;52.81
39729;BME280;25402;42.004;23.088;2023-05-20T02:12:58;97660.19;;;8.27;53.04
39729;BME280;25402;42.004;23.088;2023-05-20T02:15:26;97641.66;;;8.16;53.22
39729;BME280;25402;42.004;23.088;2023-05-20T02:17:53;97662.53;;;8.30;52.98
39729;BME280;25402;42.004;23.088;2023-05-20T02:20:22;97668.28;;;8.27;52.79
39729;BME280;25402;42.004;23.088;2023-05-20T02:22:49;97664.53;;;8.20;52.57
39729;BME280;25402;42.004;23.088;2023-05-20T02:25:16;97681.41;;;8.22;52.73
39729;BME280;25402;42.004;23.088;2023-05-20T02:27:43;97668.09;;;8.13;52.58
39729;BME280;25402;42.004;23.088;2023-05-20T02:30:10;97670.31;;;8.17;52.40
39729;BME280;25402;42.004;23.088;2023-05-20T02:32:38;97672.31;;;8.15;52.32
39729;BME280;25402;42.004;23.088;2023-05-20T02:35:06;97660.81;;;8.05;52.25
39729;BME280;25402;42.004;23.088;2023-05-20T02:37:33;97652.06;;;7.95;52.00
39729;BME280;25402;42.004;23.088;2023-05-20T02:40:00;97671.75;;;7.95;51.95
39729;BME280;25402;42.004;23.088;2023-05-20T02:42:27;97665.84;;;7.84;51.66
39729;BME280;25402;42.004;23.088;2023-05-20T02:44:54;97657.44;;;7.87;51.58
39729;BME280;25402;42.004;23.088;2023-05-20T02:47:23;97636.50;;;7.64;51.81
39729;BME280;25402;42.004;23.088;2023-05-20T02:49:52;97670.72;;;7.80;51.81
39729;BME280;25402;42.004;23.088;2023-05-20T02:52:18;97660.78;;;7.81;51.62
39729;BME280;25402;42.004;23.088;2023-05-20T02:54:46;97681.66;;;7.79;51.59
39729;BME280;25402;42.004;23.088;2023-05-20T02:57:13;97678.63;;;7.82;51.39
39729;BME280;25402;42.004;23.088;2023-05-20T02:59:40;97676.59;;;7.76;51.57
39729;BME280;25402;42.004;23.088;2023-05-20T03:02:08;97682.13;;;7.74;51.87
39729;BME280;25402;42.004;23.088;2023-05-20T03:04:35;97663.09;;;7.59;52.12
39729;BME280;25402;42.004;23.088;2023-05-20T03:07:05;97673.03;;;7.67;52.19
39729;BME280;25402;42.004;23.088;2023-05-20T03:09:33;97681.97;;;7.68;52.13
39729;BME280;25402;42.004;23.088;2023-05-20T03:12:00;97694.06;;;7.72;52.07
39729;BME280;25402;42.004;23.088;2023-05-20T03:14:27;97687.03;;;7.71;52.03
39729;BME280;25402;42.004;23.088;2023-05-20T03:16:54;97702.69;;;7.75;52.08
39729;BME280;25402;42.004;23.088;2023-05-20T03:19:21;97705.03;;;7.78;52.24
39729;BME280;25402;42.004;23.088;2023-05-20T03:21:48;97700.81;;;7.76;52.36
39729;BME280;25402;42.004;23.088;2023-05-20T03:24:17;97689.72;;;7.79;52.33
39729;BME280;25402;42.004;23.088;2023-05-20T03:26:44;97692.41;;;7.79;51.98
39729;BME280;25402;42.004;23.088;2023-05-20T03:29:11;97703.56;;;7.84;51.87
39729;BME280;25402;42.004;23.088;2023-05-20T03:31:38;97704.88;;;7.88;51.68
39729;BME280;25402;42.004;23.088;2023-05-20T03:34:06;97717.34;;;7.89;51.65
39729;BME280;25402;42.004;23.088;2023-05-20T03:36:33;97734.22;;;7.99;51.64
39729;BME280;25402;42.004;23.088;2023-05-20T03:39:00;97735.59;;;8.11;51.67
39729;BME280;25402;42.004;23.088;2023-05-20T03:41:31;97741.88;;;8.52;51.64
39729;BME280;25402;42.004;23.088;2023-05-20T03:43:57;97744.38;;;9.11;50.64
39729;BME280;25402;42.004;23.088;2023-05-20T03:46:25;97738.19;;;9.57;49.97
39729;BME280;25402;42.004;23.088;2023-05-20T03:48:52;97745.22;;;10.05;48.63
39729;BME280;25402;42.004;23.088;2023-05-20T03:51:19;97744.44;;;10.51;47.42
39729;BME280;25402;42.004;23.088;2023-05-20T03:53:47;97744.53;;;10.80;46.45
39729;BME280;25402;42.004;23.088;2023-05-20T03:56:14;97715.31;;;11.13;45.64
39729;BME280;25402;42.004;23.088;2023-05-20T03:58:43;97737.44;;;11.75;44.75
39729;BME280;25402;42.004;23.088;2023-05-20T04:01:10;97743.34;;;12.15;43.84
39729;BME280;25402;42.004;23.088;2023-05-20T04:03:39;97736.69;;;12.54;42.64
39729;BME280;25402;42.004;23.088;2023-05-20T04:06:07;97721.56;;;12.87;42.02
39729;BME280;25402;42.004;23.088;2023-05-20T04:08:34;97720.97;;;13.19;41.29
39729;BME280;25402;42.004;23.088;2023-05-20T04:11:01;97736.13;;;13.63;40.66
39729;BME280;25402;42.004;23.088;2023-05-20T04:13:28;97744.94;;;14.19;39.52
39729;BME280;25402;42.004;23.088;2023-05-20T04:15:57;97736.69;;;14.61;38.47
39729;BME280;25402;42.004;23.088;2023-05-20T04:18:26;97733.56;;;14.90;37.99
39729;BME280;25402;42.004;23.088;2023-05-20T04:20:54;97740.91;;;15.42;37.33
39729;BME280;25402;42.004;23.088;2023-05-20T04:23:21;97741.66;;;15.82;36.66
39729;BME280;25402;42.004;23.088;2023-05-20T04:25:51;97724.31;;;16.15;35.75
39729;BME280;25402;42.004;23.088;2023-05-20T04:28:17;97718.34;;;16.31;34.85
39729;BME280;25402;42.004;23.088;2023-05-20T04:30:48;97734.69;;;16.76;34.50
39729;BME280;25402;42.004;23.088;2023-05-20T04:33:20;97748.69;;;17.17;33.85
39729;BME280;25402;42.004;23.088;2023-05-20T04:35:47;97743.91;;;17.56;33.51
39729;BME280;25402;42.004;23.088;2023-05-20T04:38:14;97723.59;;;17.63;33.01
39729;BME280;25402;42.004;23.088;2023-05-20T04:40:45;97757.00;;;18.27;32.49
39729;BME280;25402;42.004;23.088;2023-05-20T04:43:12;97725.06;;;18.21;31.65
39729;BME280;25402;42.004;23.088;2023-05-20T04:45:40;97754.34;;;18.68;31.62
39729;BME280;25402;42.004;23.088;2023-05-20T04:48:10;97737.34;;;18.90;31.12
39729;BME280;25402;42.004;23.088;2023-05-20T04:50:40;97741.53;;;19.34;30.58
39729;BME280;25402;42.004;23.088;2023-05-20T04:53:07;97723.63;;;19.66;29.87
39729;BME280;25402;42.004;23.088;2023-05-20T04:55:34;97741.00;;;20.07;29.22
39729;BME280;25402;42.004;23.088;2023-05-20T04:58:01;97749.06;;;20.37;29.00
39729;BME280;25402;42.004;23.088;2023-05-20T05:00:28;97736.84;;;20.44;28.69
39729;BME280;25402;42.004;23.088;2023-05-20T05:02:55;97731.75;;;20.81;28.09
39729;BME280;25402;42.004;23.088;2023-05-20T05:05:22;97748.06;;;21.16;27.52
39729;BME280;25402;42.004;23.088;2023-05-20T05:07:50;97739.47;;;21.46;27.11
39729;BME280;25402;42.004;23.088;2023-05-20T05:10:17;97730.28;;;21.58;26.88
39729;BME280;25402;42.004;23.088;2023-05-20T05:12:46;97739.28;;;21.87;26.63
39729;BME280;25402;42.004;23.088;2023-05-20T05:15:13;97745.50;;;21.99;26.49
39729;BME280;25402;42.004;23.088;2023-05-20T05:17:40;97742.56;;;22.27;26.02
39729;BME280;25402;42.004;23.088;2023-05-20T05:20:08;97737.63;;;22.29;26.06
39729;BME280;25402;42.004;23.088;2023-05-20T05:22:35;97735.72;;;22.30;26.02
39729;BME280;25402;42.004;23.088;2023-05-20T05:25:06;97727.22;;;22.36;25.82
39729;BME280;25402;42.004;23.088;2023-05-20T05:27:33;97738.06;;;22.43;25.50
39729;BME280;25402;42.004;23.088;2023-05-20T05:30:01;97744.06;;;22.35;26.02
39729;BME280;25402;42.004;23.088;2023-05-20T05:32:28;97738.56;;;22.40;25.66
39729;BME280;25402;42.004;23.088;2023-05-20T05:34:55;97741.81;;;22.32;25.93
39729;BME280;25402;42.004;23.088;2023-05-20T05:37:21;97744.16;;;22.45;26.22
39729;BME280;25402;42.004;23.088;2023-05-20T05:39:49;97734.53;;;22.47;26.31
39729;BME280;25402;42.004;23.088;2023-05-20T05:42:17;97735.66;;;22.51;26.09
39729;BME280;25402;42.004;23.088;2023-05-20T05:44:44;97732.03;;;22.46;26.31
39729;BME280;25402;42.004;23.088;2023-05-20T05:47:12;97733.13;;;22.67;26.28
39729;BME280;25402;42.004;23.088;2023-05-20T05:49:38;97736.25;;;22.53;25.96
39729;BME280;25402;42.004;23.088;2023-05-20T05:52:05;97718.28;;;22.24;26.24
39729;BME280;25402;42.004;23.088;2023-05-20T05:54:32;97702.78;;;22.18;26.40
39729;BME280;25402;42.004;23.088;2023-05-20T05:56:59;97719.28;;;22.40;26.29
39729;BME280;25402;42.004;23.088;2023-05-20T05:59:27;97728.13;;;22.42;26.34
39729;BME280;25402;42.004;23.088;2023-05-20T06:01:54;97717.41;;;22.18;26.29
39729;BME280;25402;42.004;23.088;2023-05-20T06:04:21;97724.28;;;22.21;26.63
39729;BME280;25402;42.004;23.088;2023-05-20T06:06:49;97725.59;;;22.13;26.59
39729;BME280;25402;42.004;23.088;2023-05-20T06:09:15;97710.00;;;22.02;26.30
39729;BME280;25402;42.004;23.088;2023-05-20T06:11:43;97707.22;;;22.19;26.47
39729;BME280;25402;42.004;23.088;2023-05-20T06:14:10;97696.50;;;22.23;26.96
39729;BME280;25402;42.004;23.088;2023-05-20T06:16:38;97680.94;;;22.11;26.70
39729;BME280;25402;42.004;23.088;2023-05-20T06:19:05;97701.13;;;22.17;26.30
39729;BME280;25402;42.004;23.088;2023-05-20T06:21:33;97708.41;;;22.28;26.36
39729;BME280;25402;42.004;23.088;2023-05-20T06:24:01;97711.75;;;22.57;26.46
39729;BME280;25402;42.004;23.088;2023-05-20T06:26:27;97697.91;;;22.52;26.18
39729;BME280;25402;42.004;23.088;2023-05-20T06:28:54;97692.94;;;22.49;25.58
39729;BME280;25402;42.004;23.088;2023-05-20T06:31:21;97698.41;;;22.44;25.28
39729;BME280;25402;42.004;23.088;2023-05-20T06:33:50;97715.78;;;22.71;25.15
39729;BME280;25402;42.004;23.088;2023-05-20T06:36:16;97698.78;;;22.79;25.24
39729;BME280;25402;42.004;23.088;2023-05-20T06:38:43;97698.78;;;22.79;25.72
39729;BME280;25402;42.004;23.088;2023-05-20T06:41:10;97710.81;;;23.00;26.07
39729;BME280;25402;42.004;23.088;2023-05-20T06:43:37;97697.84;;;22.96;25.46
39729;BME280;25402;42.004;23.088;2023-05-20T06:46:05;97672.91;;;22.85;25.17
39729;BME280;25402;42.004;23.088;2023-05-20T06:48:31;97696.63;;;22.86;25.66
39729;BME280;25402;42.004;23.088;2023-05-20T06:51:00;97689.75;;;22.89;25.66
39729;BME280;25402;42.004;23.088;2023-05-20T06:53:27;97673.97;;;23.11;25.27
39729;BME280;25402;42.004;23.088;2023-05-20T06:55:54;97690.19;;;23.08;25.43
39729;BME280;25402;42.004;23.088;2023-05-20T06:58:22;97652.03;;;22.95;25.72
39729;BME280;25402;42.004;23.088;2023-05-20T07:00:49;97673.19;;;23.16;26.01
39729;BME280;25402;42.004;23.088;2023-05-20T07:03:15;97671.00;;;23.18;25.95
39729;BME280;25402;42.004;23.088;2023-05-20T07:05:43;97679.78;;;23.15;25.77
39729;BME280;25402;42.004;23.088;2023-05-20T07:08:11;97665.47;;;23.18;25.66
39729;BME280;25402;42.004;23.088;2023-05-20T07:10:38;97668.75;;;23.15;25.88
39729;BME280;25402;42.004;23.088;2023-05-20T07:13:05;97647.97;;;23.07;26.68
39729;BME280;25402;42.004;23.088;2023-05-20T07:15:32;97650.09;;;23.32;26.04
39729;BME280;25402;42.004;23.088;2023-05-20T07:17:59;97633.75;;;23.20;25.99
39729;BME280;25402;42.004;23.088;2023-05-20T07:20:26;97645.81;;;23.14;26.10
39729;BME280;25402;42.004;23.088;2023-05-20T07:22:53;97641.78;;;23.22;26.00
39729;BME280;25402;42.004;23.088;2023-05-20T07:25:21;97629.13;;;23.31;26.43
39729;BME280;25402;42.004;23.088;2023-05-20T07:27:48;97628.59;;;23.29;26.14
39729;BME280;25402;42.004;23.088;2023-05-20T07:30:15;97614.09;;;23.12;25.96
39729;BME280;25402;42.004;23.088;2023-05-20T07:32:42;97615.84;;;22.91;25.92
39729;BME280;25402;42.004;23.088;2023-05-20T07:35:09;97615.56;;;22.87;26.31
39729;BME280;25402;42.004;23.088;2023-05-20T07:37:35;97614.16;;;22.85;26.14
39729;BME280;25402;42.004;23.088;2023-05-20T07:40:03;97614.47;;;22.88;26.17
39729;BME280;25402;42.004;23.088;2023-05-20T07:42:33;97605.59;;;22.86;26.44
39729;BME280;25402;42.004;23.088;2023-05-20T07:44:59;97616.06;;;22.79;27.30
39729;BME280;25402;42.004;23.088;2023-05-20T07:47:27;97604.22;;;22.84;27.48
39729;BME280;25402;42.004;23.088;2023-05-20T07:49:53;97592.84;;;22.75;26.70
39729;BME280;25402;42.004;23.088;2023-05-20T07:52:20;97587.34;;;22.75;26.65
39729;BME280;25402;42.004;23.088;2023-05-20T07:54:47;97583.94;;;22.63;27.20
39729;BME280;25402;42.004;23.088;2023-05-20T07:57:14;97579.81;;;22.66;27.04
39729;BME280;25402;42.004;23.088;2023-05-20T07:59:42;97572.16;;;22.46;26.97
39729;BME280;25402;42.004;23.088;2023-05-20T08:02:09;97569.69;;;22.44;27.26
39729;BME280;25402;42.004;23.088;2023-05-20T08:04:36;97563.66;;;22.47;27.71
39729;BME280;25402;42.004;23.088;2023-05-20T08:07:03;97552.91;;;22.51;28.18
39729;BME280;25402;42.004;23.088;2023-05-20T08:09:33;97550.13;;;22.46;27.95
39729;BME280;25402;42.004;23.088;2023-05-20T08:12:00;97542.44;;;22.53;27.70
39729;BME280;25402;42.004;23.088;2023-05-20T08:14:27;97547.19;;;22.58;27.76
39729;BME280;25402;42.004;23.088;2023-05-20T08:16:55;97534.50;;;22.57;27.51
39729;BME280;25402;42.004;23.088;2023-05-20T08:19:22;97539.00;;;22.68;27.43
39729;BME280;25402;42.004;23.088;2023-05-20T08:21:49;97541.53;;;22.74;27.29
39729;BME280;25402;42.004;23.088;2023-05-20T08:24:16;97555.44;;;22.89;26.89
39729;BME280;25402;42.004;23.088;2023-05-20T08:26:42;97544.47;;;23.00;26.57
39729;BME280;25402;42.004;23.088;2023-05-20T08:29:09;97536.16;;;22.95;26.60
39729;BME280;25402;42.004;23.088;2023-05-20T08:31:36;97518.53;;;23.01;26.46
39729;BME280;25402;42.004;23.088;2023-05-20T08:34:05;97524.97;;;23.11;26.56
39729;BME280;25402;42.004;23.088;2023-05-20T08:36:32;97523.09;;;23.22;26.89
39729;BME280;25402;42.004;23.088;2023-05-20T08:38:59;97512.09;;;23.27;26.91
39729;BME280;25402;42.004;23.088;2023-05-20T08:41:26;97509.91;;;23.29;26.71
39729;BME280;25402;42.004;23.088;2023-05-20T08:43:53;97511.81;;;23.23;26.29
39729;BME280;25402;42.004;23.088;2023-05-20T08:46:20;97506.75;;;23.10;26.60
39729;BME280;25402;42.004;23.088;2023-05-20T08:48:48;97488.44;;;22.99;27.31
39729;BME280;25402;42.004;23.088;2023-05-20T08:51:19;97499.06;;;23.17;27.26
39729;BME280;25402;42.004;23.088;2023-05-20T08:53:48;97503.78;;;23.22;27.63
39729;BME280;25402;42.004;23.088;2023-05-20T08:56:15;97494.44;;;23.28;27.87
39729;BME280;25402;42.004;23.088;2023-05-20T08:58:43;97504.16;;;23.46;26.57
39729;BME280;25402;42.004;23.088;2023-05-20T09:01:11;97498.41;;;23.63;26.68
39729;BME280;25402;42.004;23.088;2023-05-20T09:03:38;97488.25;;;23.73;26.13
39729;BME280;25402;42.004;23.088;2023-05-20T09:06:07;97481.91;;;23.83;25.73
39729;BME280;25402;42.004;23.088;2023-05-20T09:08:35;97469.50;;;23.96;25.04
39729;BME280;25402;42.004;23.088;2023-05-20T09:11:02;97478.66;;;24.26;25.46
39729;BME280;25402;42.004;23.088;2023-05-20T09:13:30;97463.16;;;24.20;24.81
39729;BME280;25402;42.004;23.088;2023-05-20T09:15:59;97468.44;;;24.32;25.46
39729;BME280;25402;42.004;23.088;2023-05-20T09:18:26;97439.41;;;24.45;25.06
39729;BME280;25402;42.004;23.088;2023-05-20T09:20:53;97470.09;;;24.53;24.60
39729;BME280;25402;42.004;23.088;2023-05-20T09:23:20;97470.03;;;24.74;25.02
39729;BME280;25402;42.004;23.088;2023-05-20T09:25:49;97461.16;;;24.97;24.24
39729;BME280;25402;42.004;23.088;2023-05-20T09:28:18;97467.22;;;25.09;24.57
39729;BME280;25402;42.004;23.088;2023-05-20T09:30:48;97462.16;;;25.21;24.02
39729;BME280;25402;42.004;23.088;2023-05-20T09:33:16;97449.09;;;25.42;23.87
39729;BME280;25402;42.004;23.088;2023-05-20T09:35:43;97439.69;;;25.43;22.77
39729;BME280;25402;42.004;23.088;2023-05-20T09:38:10;97443.56;;;25.42;23.07
39729;BME280;25402;42.004;23.088;2023-05-20T09:40:38;97446.44;;;25.12;23.41
39729;BME280;25402;42.004;23.088;2023-05-20T09:43:09;97428.19;;;25.06;22.95
39729;BME280;25402;42.004;23.088;2023-05-20T09:45:37;97423.41;;;25.32;22.17
39729;BME280;25402;42.004;23.088;2023-05-20T09:48:04;97423.66;;;25.35;22.47
39729;BME280;25402;42.004;23.088;2023-05-20T09:50:33;97408.47;;;25.27;21.87
39729;BME280;25402;42.004;23.088;2023-05-20T09:53:02;97407.84;;;25.46;22.20
39729;BME280;25402;42.004;23.088;2023-05-20T09:55:30;97404.72;;;24.93;22.63
39729;BME280;25402;42.004;23.088;2023-05-20T09:58:01;97405.06;;;24.86;22.70
39729;BME280;25402;42.004;23.088;2023-05-20T10:00:30;97384.56;;;24.72;23.21
39729;BME280;25402;42.004;23.088;2023-05-20T10:02:57;97391.53;;;24.70;23.87
39729;BME280;25402;42.004;23.088;2023-05-20T10:05:27;97377.94;;;24.78;23.81
39729;BME280;25402;42.004;23.088;2023-05-20T10:08:21;97388.59;;;25.10;22.68
39729;BME280;25402;42.004;23.088;2023-05-20T10:10:58;97378.03;;;25.27;22.89
39729;BME280;25402;42.004;23.088;2023-05-20T10:13:56;97375.75;;;25.35;22.77
39729;BME280;25402;42.004;23.088;2023-05-20T10:16:37;97365.94;;;25.52;22.75
39729;BME280;25402;42.004;23.088;2023-05-20T10:19:11;97353.91;;;26.06;22.00
39729;BME280;25402;42.004;23.088;2023-05-20T10:21:41;97348.59;;;26.44;20.86
39729;BME280;25402;42.004;23.088;2023-05-20T10:24:09;97344.38;;;26.46;20.53
39729;BME280;25402;42.004;23.088;2023-05-20T10:26:36;97333.44;;;26.84;20.38
39729;BME280;25402;42.004;23.088;2023-05-20T10:29:14;97340.78;;;26.70;19.54
39729;BME280;25402;42.004;23.088;2023-05-20T10:31:47;97323.97;;;26.61;19.72
39729;BME280;25402;42.004;23.088;2023-05-20T10:34:15;97310.63;;;26.87;19.82
39729;BME280;25402;42.004;23.088;2023-05-20T10:36:45;97316.53;;;27.23;19.35
39729;BME280;25402;42.004;23.088;2023-05-20T10:39:15;97312.59;;;27.24;19.79
39729;BME280;25402;42.004;23.088;2023-05-20T10:41:43;97297.88;;;27.61;20.04
39729;BME280;25402;42.004;23.088;2023-05-20T10:44:10;97287.97;;;27.74;19.81
39729;BME280;25402;42.004;23.088;2023-05-20T10:46:37;97281.69;;;28.00;19.66
39729;BME280;25402;42.004;23.088;2023-05-20T10:49:16;97287.38;;;28.23;18.70
39729;BME280;25402;42.004;23.088;2023-05-20T10:51:44;97291.59;;;28.34;18.61
39729;BME280;25402;42.004;23.088;2023-05-20T10:54:13;97293.47;;;28.66;18.75
39729;BME280;25402;42.004;23.088;2023-05-20T10:56:50;97280.06;;;28.82;19.35
39729;BME280;25402;42.004;23.088;2023-05-20T10:59:18;97278.81;;;29.01;19.80
39729;BME280;25402;42.004;23.088;2023-05-20T11:01:46;97283.75;;;29.04;19.10
39729;BME280;25402;42.004;23.088;2023-05-20T11:04:15;97278.81;;;29.15;19.27
39729;BME280;25402;42.004;23.088;2023-05-20T11:06:49;97265.84;;;29.33;19.09
39729;BME280;25402;42.004;23.088;2023-05-20T11:09:19;97260.41;;;29.50;18.20
39729;BME280;25402;42.004;23.088;2023-05-20T11:11:47;97248.72;;;29.39;18.18
39729;BME280;25402;42.004;23.088;2023-05-20T11:14:14;97266.06;;;29.59;17.43
39729;BME280;25402;42.004;23.088;2023-05-20T11:16:42;97264.19;;;29.68;16.73
39729;BME280;25402;42.004;23.088;2023-05-20T11:19:15;97246.22;;;29.38;16.59
39729;BME280;25402;42.004;23.088;2023-05-20T11:21:43;97264.16;;;29.10;17.26
39729;BME280;25402;42.004;23.088;2023-05-20T11:24:11;97261.41;;;28.82;17.38
39729;BME280;25402;42.004;23.088;2023-05-20T11:26:38;97252.06;;;28.78;17.70
39729;BME280;25402;42.004;23.088;2023-05-20T11:29:05;97240.72;;;28.75;17.21
39729;BME280;25402;42.004;23.088;2023-05-20T11:31:32;97230.78;;;28.82;16.86
39729;BME280;25402;42.004;23.088;2023-05-20T11:34:00;97255.63;;;28.92;16.89
39729;BME280;25402;42.004;23.088;2023-05-20T11:36:29;97232.69;;;28.59;16.95
39729;BME280;25402;42.004;23.088;2023-05-20T11:38:56;97243.41;;;28.38;17.21
39729;BME280;25402;42.004;23.088;2023-05-20T11:41:25;97246.38;;;28.15;17.70
39729;BME280;25402;42.004;23.088;2023-05-20T11:43:59;97235.00;;;27.84;17.78
39729;BME280;25402;42.004;23.088;2023-05-20T11:46:26;97231.91;;;27.53;17.82
39729;BME280;25402;42.004;23.088;2023-05-20T11:48:54;97238.47;;;27.06;18.51
39729;BME280;25402;42.004;23.088;2023-05-20T11:51:25;97228.41;;;26.72;18.05
39729;BME280;25402;42.004;23.088;2023-05-20T11:53:58;97242.31;;;26.67;18.75
39729;BME280;25402;42.004;23.088;2023-05-20T11:56:25;97237.00;;;26.71;18.86
39729;BME280;25402;42.004;23.088;2023-05-20T11:58:55;97219.81;;;26.26;19.43
39729;BME280;25402;42.004;23.088;2023-05-20T12:01:23;97225.31;;;26.31;19.73
39729;BME280;25402;42.004;23.088;2023-05-20T12:03:50;97216.94;;;26.12;20.99
39729;BME280;25402;42.004;23.088;2023-05-20T12:06:17;97233.50;;;25.93;20.03
39729;BME280;25402;42.004;23.088;2023-05-20T12:08:43;97218.03;;;25.58;21.00
39729;BME280;25402;42.004;23.088;2023-05-20T12:11:12;97212.13;;;25.36;21.58
39729;BME280;25402;42.004;23.088;2023-05-20T12:13:39;97225.63;;;25.04;22.26
39729;BME280;25402;42.004;23.088;2023-05-20T12:16:06;97214.13;;;24.37;23.09
39729;BME280;25402;42.004;23.088;2023-05-20T12:18:33;97226.03;;;24.28;23.68
39729;BME280;25402;42.004;23.088;2023-05-20T12:21:00;97233.84;;;24.05;24.09
39729;BME280;25402;42.004;23.088;2023-05-20T12:23:27;97226.16;;;23.62;25.12
39729;BME280;25402;42.004;23.088;2023-05-20T12:25:58;97222.88;;;23.70;24.71
39729;BME280;25402;42.004;23.088;2023-05-20T12:28:26;97212.94;;;23.74;24.49
39729;BME280;25402;42.004;23.088;2023-05-20T12:30:53;97209.31;;;23.78;24.64
39729;BME280;25402;42.004;23.088;2023-05-20T12:33:20;97193.00;;;23.92;23.68
39729;BME280;25402;42.004;23.088;2023-05-20T12:35:47;97197.28;;;24.29;23.66
39729;BME280;25402;42.004;23.088;2023-05-20T12:38:14;97200.34;;;24.81;23.32
39729;BME280;25402;42.004;23.088;2023-05-20T12:40:41;97195.38;;;24.78;22.83
39729;BME280;25402;42.004;23.088;2023-05-20T12:43:08;97197.03;;;24.79;22.84
39729;BME280;25402;42.004;23.088;2023-05-20T12:45:36;97196.50;;;24.72;22.88
39729;BME280;25402;42.004;23.088;2023-05-20T12:48:04;97197.19;;;24.49;23.17
39729;BME280;25402;42.004;23.088;2023-05-20T12:50:32;97174.34;;;24.28;23.46
39729;BME280;25402;42.004;23.088;2023-05-20T12:52:59;97182.06;;;24.36;23.37
39729;BME280;25402;42.004;23.088;2023-05-20T12:55:26;97186.75;;;24.36;24.18
39729;BME280;25402;42.004;23.088;2023-05-20T12:57:54;97183.47;;;24.29;24.46
39729;BME280;25402;42.004;23.088;2023-05-20T13:00:21;97182.38;;;24.19;24.34
39729;BME280;25402;42.004;23.088;2023-05-20T13:02:50;97164.22;;;23.98;24.38